Flag for France

Past Weather in 43°12'42.5"N, 5°31'58.1"E, France — Yesterday and Last 2 Weeks

Currently: 73 °F. Sunny. (Weather station: Marseille / Marignane, France). See more current weather

Past Weather in 43°12'42.5"N, 5°31'58.1"E — Graph

°F

43°12'42.5"N, 5°31'58.1"E Temperature Yesterday

Maximum temperature yesterday: 70 °F (at 5:00 pm)
Minimum temperature yesterday: 59 °F (at 4:00 am)
Average temperature yesterday: 64 °F

High & Low Weather Summary for the Past Weeks

 TemperatureHumidityPressure
High79 °F (May 11, 12:30 pm)94% (May 14, 11:00 pm)30.12 "Hg (May 14, 11:00 pm)
Low52 °F (May 25, 4:00 am)30% (May 11, 1:00 pm)29.65 "Hg (May 14, 7:30 pm)
Average65 °F68%29.90 "Hg
* Reported May 10 3:00 pm — May 25 3:00 pm, 43°12'42.5"N, 5°31'58.1"E. Weather by CustomWeather, © 2024

Note: Actual official high and low records may vary slightly from our data, if they occured in-between our weather recording intervals... More about our weather records

43°12'42.5"N, 5°31'58.1"E Weather History for the Previous 24 Hours

Scroll right to see more
 ConditionsComfort  
Time TempWeatherWind HumidityBarometerVisibility
3:00 pm
Sat, May 25
73 °FSunny.14 mph47%30.01 "Hg10 mi
2:30 pm73 °FSunny.16 mph50%30.01 "Hg10 mi
2:00 pm73 °FSunny.14 mph50%30.04 "Hg10 mi
1:30 pm73 °FSunny.9 mph47%30.04 "Hg10 mi
1:00 pm72 °FSunny.6 mph53%30.04 "Hg10 mi
12:30 pm72 °FPassing clouds.5 mph57%30.04 "HgN/A
12:00 pm70 °FSunny.6 mph57%30.04 "Hg10 mi
11:30 am70 °FPassing clouds.3 mph57%30.04 "HgN/A
11:00 am68 °FSunny.5 mph60%30.04 "Hg10 mi
10:30 am66 °FSunny.5 mph64%30.04 "Hg10 mi
10:00 am66 °FSunny.5 mph64%30.04 "Hg10 mi
9:30 am66 °FPassing clouds.3 mph60%30.04 "HgN/A
9:00 am66 °FSunny.1 mph64%30.04 "Hg10 mi
8:30 am63 °FPassing clouds.5 mph68%30.04 "HgN/A
8:00 am59 °FSunny.5 mph82%30.04 "Hg10 mi
7:30 am57 °FPassing clouds.3 mph88%30.04 "HgN/A
7:00 am54 °FSunny.6 mph94%30.04 "Hg10 mi
6:30 am54 °FSunny.6 mph88%30.04 "Hg10 mi
6:00 am54 °FClear.5 mph88%30.04 "Hg10 mi
5:30 am52 °FClear.6 mph88%30.04 "Hg10 mi
5:00 am55 °FClear.3 mph82%30.04 "Hg10 mi
4:30 am54 °FClear.3 mph88%30.04 "Hg10 mi
4:00 am52 °FClear.5 mph94%30.04 "Hg10 mi
3:30 am54 °FClear.6 mph88%30.04 "Hg10 mi
3:00 am55 °FClear.3 mph82%30.07 "Hg10 mi
2:00 am55 °FClear.6 mph88%30.07 "Hg10 mi
1:30 am55 °FClear.6 mph88%30.07 "Hg10 mi
1:00 am55 °FClear.7 mph82%30.07 "Hg10 mi
12:30 am59 °FCool.5 mph77%30.07 "HgN/A
12:00 am61 °FClear.3 mph77%30.07 "Hg10 mi
11:30 pm
Fri, May 24
63 °FClear.5 mph73%30.07 "Hg10 mi
11:00 pm63 °FClear.8 mph73%30.07 "Hg10 mi
10:30 pm63 °FClear.8 mph68%30.07 "Hg10 mi
10:00 pm64 °FClear.7 mph68%30.07 "Hg10 mi
9:30 pm64 °FClear.7 mph64%30.07 "Hg10 mi
9:00 pm64 °FPassing clouds.6 mph64%30.07 "HgN/A
8:30 pm66 °FSunny.7 mph60%30.07 "Hg10 mi
8:00 pm66 °FSunny.8 mph60%30.07 "Hg10 mi
7:30 pm70 °FSunny.10 mph53%30.07 "Hg10 mi
7:00 pm70 °FSunny.7 mph53%30.04 "Hg10 mi
6:30 pm70 °FPassing clouds.5 mph57%30.07 "HgN/A
6:00 pm70 °FSunny.3 mph60%30.07 "Hg10 mi
5:30 pm68 °FSunny.5 mph60%30.07 "Hg10 mi
5:00 pm70 °FPassing clouds.5 mph60%30.07 "HgN/A
4:30 pm66 °FSunny.7 mph68%30.07 "Hg10 mi
4:00 pm66 °FPassing clouds.5 mph64%30.07 "HgN/A
Weather by CustomWeather, © 2024

See weather overview